createdAt,value
2019-02-16T00:00:30.335Z,7.43
2019-02-16T00:02:59.080Z,6.53
2019-02-16T00:05:27.871Z,6.37
2019-02-16T00:07:56.640Z,7.20
2019-02-16T00:10:25.446Z,6.60
2019-02-16T00:12:54.208Z,6.87
2019-02-16T00:15:23.002Z,6.93
2019-02-16T00:17:51.824Z,4.27
2019-02-16T00:20:20.591Z,4.90
2019-02-16T00:22:49.351Z,6.27
2019-02-16T00:25:18.122Z,8.10
2019-02-16T00:27:46.904Z,5.70
2019-02-16T00:30:15.734Z,9.07
2019-02-16T00:32:44.669Z,5.07
2019-02-16T00:35:13.474Z,6.13
2019-02-16T00:37:42.220Z,6.33
2019-02-16T00:40:10.977Z,7.27
2019-02-16T00:42:39.779Z,6.57
2019-02-16T00:45:08.529Z,5.47
2019-02-16T00:47:37.305Z,6.53
2019-02-16T00:50:06.401Z,6.53
2019-02-16T00:52:35.198Z,4.43
2019-02-16T00:55:05.092Z,5.10
2019-02-16T00:57:33.850Z,5.27
2019-02-16T01:00:03.340Z,5.00
2019-02-16T01:02:32.124Z,6.73
2019-02-16T01:05:00.895Z,5.93
2019-02-16T01:07:29.738Z,5.20
2019-02-16T01:09:58.494Z,5.83
2019-02-16T01:12:27.255Z,5.93
2019-02-16T01:14:55.999Z,8.90
2019-02-16T01:17:24.800Z,5.93
2019-02-16T01:19:53.632Z,4.80
2019-02-16T01:22:22.390Z,6.70
2019-02-16T01:24:51.163Z,6.77
2019-02-16T01:27:19.913Z,4.97
2019-02-16T01:29:48.702Z,6.13
2019-02-16T01:32:17.499Z,5.10
2019-02-16T01:34:46.315Z,5.73
2019-02-16T01:37:15.068Z,5.40
2019-02-16T01:39:43.831Z,5.67
2019-02-16T01:42:13.351Z,4.70
2019-02-16T01:44:42.129Z,5.90
2019-02-16T01:47:10.882Z,5.57
2019-02-16T01:49:39.752Z,5.90
2019-02-16T01:52:08.520Z,5.00
2019-02-16T01:54:37.280Z,5.67
2019-02-16T01:57:06.045Z,5.20
2019-02-16T01:59:34.819Z,6.80
2019-02-16T02:02:03.618Z,5.73
2019-02-16T02:04:32.401Z,5.57
2019-02-16T02:07:01.157Z,5.67
2019-02-16T02:09:29.921Z,4.97
2019-02-16T02:11:58.683Z,6.57
2019-02-16T02:14:27.439Z,7.23
2019-02-16T02:16:56.212Z,5.97
2019-02-16T02:19:24.979Z,5.27
2019-02-16T02:21:53.723Z,6.37
2019-02-16T02:24:22.491Z,8.23
2019-02-16T02:26:51.231Z,5.90
2019-02-16T02:29:20.003Z,7.43
2019-02-16T02:31:48.764Z,7.63
2019-02-16T02:34:17.579Z,6.27
2019-02-16T02:36:46.353Z,7.00
2019-02-16T02:39:15.140Z,6.93
2019-02-16T02:41:43.904Z,6.43
2019-02-16T02:44:12.748Z,6.20
2019-02-16T02:46:41.712Z,6.77
2019-02-16T02:49:10.472Z,6.03
2019-02-16T02:51:39.228Z,5.70
2019-02-16T02:54:07.988Z,5.53
2019-02-16T02:56:36.765Z,6.60
2019-02-16T02:59:05.534Z,5.73
2019-02-16T03:01:34.328Z,7.00
2019-02-16T03:04:03.058Z,5.70
2019-02-16T03:06:31.835Z,8.10
2019-02-16T03:09:00.585Z,7.00
2019-02-16T03:11:29.354Z,5.03
2019-02-16T03:13:58.095Z,5.60
2019-02-16T03:16:26.908Z,6.93
2019-02-16T03:18:55.665Z,4.97
2019-02-16T03:21:24.437Z,7.33
2019-02-16T03:23:53.175Z,5.60
2019-02-16T03:26:34.031Z,6.23
2019-02-16T03:29:08.930Z,5.27
2019-02-16T03:32:14.606Z,5.23
2019-02-16T03:35:14.127Z,6.87
2019-02-16T03:38:00.905Z,6.40
2019-02-16T03:40:29.662Z,5.20
2019-02-16T03:42:58.432Z,6.13
2019-02-16T03:45:27.172Z,6.60
2019-02-16T03:47:56.028Z,9.13
2019-02-16T03:50:24.779Z,5.90
2019-02-16T03:52:53.610Z,8.30
2019-02-16T03:55:22.368Z,6.97
2019-02-16T03:57:51.149Z,7.70
2019-02-16T04:00:19.910Z,6.93
2019-02-16T04:02:48.682Z,6.50
2019-02-16T04:05:17.527Z,7.43
2019-02-16T04:07:46.298Z,8.03
2019-02-16T04:10:15.053Z,6.70
2019-02-16T04:12:43.830Z,7.20
2019-02-16T04:15:12.574Z,7.33
2019-02-16T04:17:41.335Z,8.03
2019-02-16T04:20:10.159Z,5.90
2019-02-16T04:22:38.932Z,6.20
2019-02-16T04:25:07.717Z,7.47
2019-02-16T04:27:36.447Z,7.17
2019-02-16T04:30:06.650Z,7.40
2019-02-16T04:32:35.387Z,7.20
2019-02-16T04:35:04.744Z,8.37
2019-02-16T04:37:33.507Z,6.43
2019-02-16T04:40:02.283Z,6.63
2019-02-16T04:42:31.036Z,7.37
2019-02-16T04:44:59.878Z,6.53
2019-02-16T04:47:28.610Z,5.27
2019-02-16T04:49:57.434Z,6.97
2019-02-16T04:52:34.322Z,6.50
2019-02-16T04:54:56.643Z,7.17
2019-02-16T04:57:25.390Z,6.23
2019-02-16T04:59:54.263Z,5.93
2019-02-16T05:02:23.014Z,9.03
2019-02-16T05:04:51.781Z,7.03
2019-02-16T05:07:20.523Z,6.00
2019-02-16T05:09:49.269Z,6.50
2019-02-16T05:12:18.048Z,5.43
2019-02-16T05:14:47.135Z,5.97
2019-02-16T05:17:16.014Z,6.60
2019-02-16T05:19:44.761Z,6.73
2019-02-16T05:22:13.521Z,7.77
2019-02-16T05:24:42.273Z,5.83
2019-02-16T05:27:11.044Z,7.57
2019-02-16T05:29:39.785Z,6.13
2019-02-16T05:32:08.566Z,6.47
2019-02-16T05:34:37.328Z,7.77
2019-02-16T05:37:06.110Z,4.30
2019-02-16T05:39:34.915Z,6.00
2019-02-16T05:42:03.672Z,5.70
2019-02-16T05:44:32.573Z,9.23
2019-02-16T05:47:01.351Z,6.43
2019-02-16T05:49:30.111Z,11.00
2019-02-16T05:51:58.892Z,9.40
2019-02-16T05:54:27.631Z,6.80
2019-02-16T05:56:56.394Z,8.60
2019-02-16T05:59:25.216Z,12.03
2019-02-16T06:01:54.485Z,10.17
2019-02-16T06:04:23.303Z,8.90
2019-02-16T06:06:52.062Z,7.60
2019-02-16T06:09:20.804Z,7.57
2019-02-16T06:11:49.580Z,8.23
2019-02-16T06:14:18.338Z,6.17
2019-02-16T06:16:47.151Z,6.00
2019-02-16T06:19:15.918Z,6.67
2019-02-16T06:21:44.739Z,8.13
2019-02-16T06:24:13.539Z,7.43
2019-02-16T06:26:42.324Z,7.47
2019-02-16T06:29:11.101Z,8.07
2019-02-16T06:31:39.835Z,7.13
2019-02-16T06:34:08.619Z,8.33
2019-02-16T06:36:37.932Z,6.63
2019-02-16T06:39:06.723Z,7.00
2019-02-16T06:41:35.451Z,8.77
2019-02-16T06:44:04.218Z,8.50
2019-02-16T06:46:32.956Z,7.17
2019-02-16T06:49:01.739Z,6.50
2019-02-16T06:51:30.472Z,8.53
2019-02-16T06:53:59.267Z,9.47
2019-02-16T06:56:29.660Z,8.67
2019-02-16T06:58:58.427Z,9.63
2019-02-16T07:01:27.207Z,7.83
2019-02-16T07:03:55.988Z,8.23
2019-02-16T07:06:24.811Z,7.27
2019-02-16T07:08:53.587Z,9.70
2019-02-16T07:11:22.343Z,7.87
2019-02-16T07:13:51.121Z,9.87
2019-02-16T07:16:33.602Z,10.03
2019-02-16T07:19:04.087Z,7.77
2019-02-16T07:21:32.843Z,6.87
2019-02-16T07:24:01.621Z,7.17
2019-02-16T07:26:30.408Z,7.37
2019-02-16T07:28:59.303Z,7.53
2019-02-16T07:31:28.107Z,10.73
2019-02-16T07:33:56.901Z,9.37
2019-02-16T07:36:25.708Z,10.03
2019-02-16T07:38:54.447Z,8.40
2019-02-16T07:41:23.267Z,6.90
2019-02-16T07:43:59.484Z,10.37
2019-02-16T07:46:35.828Z,5.93
2019-02-16T07:49:12.412Z,6.87
2019-02-16T07:51:48.715Z,7.93
2019-02-16T07:54:28.117Z,8.03
2019-02-16T07:57:16.833Z,6.83
2019-02-16T07:59:49.954Z,5.97
2019-02-16T08:02:20.359Z,8.30
2019-02-16T08:04:56.535Z,11.07
2019-02-16T08:07:42.869Z,8.47
2019-02-16T08:10:13.478Z,10.00
2019-02-16T08:12:43.897Z,10.10
2019-02-16T08:15:14.331Z,12.47
2019-02-16T08:17:44.779Z,10.40
2019-02-16T08:20:30.171Z,10.80
2019-02-16T08:23:03.322Z,10.80
2019-02-16T08:25:33.716Z,9.53
2019-02-16T08:28:06.896Z,10.67
2019-02-16T08:30:46.136Z,12.23
2019-02-16T08:33:22.562Z,12.03
2019-02-16T08:36:01.786Z,14.07
2019-02-16T08:38:41.141Z,8.50
2019-02-16T08:41:29.802Z,7.40
2019-02-16T08:44:00.217Z,7.47
2019-02-16T08:46:39.139Z,7.50
2019-02-16T08:49:09.587Z,6.20
2019-02-16T08:51:55.335Z,6.67
2019-02-16T08:54:31.512Z,6.50
2019-02-16T08:57:04.633Z,6.77
2019-02-16T08:59:35.045Z,6.27
2019-02-16T09:02:05.474Z,7.30
2019-02-16T09:04:53.951Z,9.33
2019-02-16T09:07:24.401Z,8.37
2019-02-16T09:09:57.760Z,8.13
2019-02-16T09:12:31.076Z,9.60
2019-02-16T09:15:16.531Z,10.37
2019-02-16T09:18:02.067Z,8.20
2019-02-16T09:20:44.773Z,6.23
2019-02-16T09:23:23.937Z,6.40
2019-02-16T09:25:54.323Z,5.97
2019-02-16T09:28:36.650Z,6.17
2019-02-16T09:31:12.777Z,6.93
2019-02-16T09:33:59.097Z,6.60
2019-02-16T09:36:38.534Z,5.27
2019-02-16T09:39:11.734Z,6.60
2019-02-16T09:41:42.108Z,8.83
2019-02-16T09:44:15.206Z,6.90
2019-02-16T09:46:48.284Z,6.57
2019-02-16T09:49:18.699Z,7.10
2019-02-16T09:51:49.102Z,6.47
2019-02-16T09:54:19.547Z,6.93
2019-02-16T09:56:49.952Z,6.97
2019-02-16T09:59:23.537Z,5.80
2019-02-16T10:01:56.690Z,6.50
2019-02-16T10:04:27.100Z,6.80
2019-02-16T10:07:14.167Z,6.10
2019-02-16T10:09:47.551Z,6.77
2019-02-16T10:12:18.007Z,5.87
2019-02-16T10:14:57.397Z,7.43
2019-02-16T10:17:44.243Z,5.50
2019-02-16T10:20:14.683Z,5.53
2019-02-16T10:22:54.352Z,5.10
2019-02-16T10:25:33.701Z,5.37
2019-02-16T10:28:06.534Z,5.53
2019-02-16T10:30:39.657Z,4.63
2019-02-16T10:33:12.775Z,6.03
2019-02-16T10:35:46.181Z,7.17
2019-02-16T10:38:31.902Z,5.80
2019-02-16T10:41:02.334Z,5.17
2019-02-16T10:43:41.734Z,5.03
2019-02-16T10:46:28.629Z,5.67
2019-02-16T10:48:59.024Z,4.90
2019-02-16T10:51:45.723Z,4.97
2019-02-16T10:54:32.336Z,4.80
2019-02-16T10:57:02.793Z,6.40
2019-02-16T10:59:42.285Z,6.27
2019-02-16T11:02:14.615Z,4.57
2019-02-16T11:04:47.683Z,5.93
2019-02-16T11:07:18.113Z,5.33
2019-02-16T11:09:48.506Z,5.50
2019-02-16T11:12:24.693Z,5.10
2019-02-16T11:14:57.909Z,7.97
2019-02-16T11:17:28.366Z,5.90
2019-02-16T11:20:14.991Z,7.97
2019-02-16T11:23:03.704Z,6.37
2019-02-16T11:25:49.106Z,8.33
2019-02-16T11:28:36.054Z,10.10
2019-02-16T11:31:06.562Z,7.77
2019-02-16T11:33:53.351Z,9.30
2019-02-16T11:36:26.431Z,10.87
2019-02-16T11:39:02.825Z,9.03
2019-02-16T11:41:36.176Z,9.73
2019-02-16T11:44:12.419Z,10.87
2019-02-16T11:46:54.895Z,9.80
2019-02-16T11:49:25.362Z,11.10
2019-02-16T11:52:13.988Z,10.70
2019-02-16T11:54:47.010Z,9.23
2019-02-16T11:57:17.422Z,10.13
2019-02-16T11:59:47.868Z,10.90
2019-02-16T12:02:21.008Z,11.07
2019-02-16T12:04:51.445Z,10.47
2019-02-16T12:07:31.015Z,9.93
2019-02-16T12:10:10.582Z,11.00
2019-02-16T12:12:40.994Z,10.43
2019-02-16T12:15:20.683Z,10.90
2019-02-16T12:18:03.382Z,12.20
2019-02-16T12:20:42.960Z,10.27
2019-02-16T12:23:16.045Z,13.27
2019-02-16T12:26:02.655Z,11.60
2019-02-16T12:28:49.629Z,9.67
2019-02-16T12:31:22.768Z,10.33
2019-02-16T12:33:56.131Z,12.33
2019-02-16T12:36:26.589Z,13.30
2019-02-16T12:39:05.038Z,10.33
2019-02-16T12:41:51.488Z,9.13
2019-02-16T12:44:40.246Z,12.27
2019-02-16T12:47:10.723Z,12.30
2019-02-16T12:49:59.304Z,11.47
2019-02-16T12:52:29.741Z,12.60
2019-02-16T12:55:02.746Z,13.67
2019-02-16T12:57:33.245Z,12.17
2019-02-16T13:00:03.662Z,13.90
2019-02-16T13:02:34.095Z,12.17
2019-02-16T13:05:13.238Z,13.77
2019-02-16T13:07:43.683Z,13.00
2019-02-16T13:10:14.110Z,12.93
2019-02-16T13:12:47.288Z,12.57
2019-02-16T13:15:20.636Z,12.77
2019-02-16T13:18:07.281Z,14.00
2019-02-16T13:20:37.716Z,11.97
2019-02-16T13:23:14.379Z,11.53
2019-02-16T13:25:44.790Z,14.73
2019-02-16T13:28:15.218Z,11.80
2019-02-16T13:30:48.350Z,14.80
2019-02-16T13:33:21.712Z,16.27
2019-02-16T13:35:55.091Z,11.70
2019-02-16T13:38:34.236Z,14.00
2019-02-16T13:41:04.639Z,15.13
2019-02-16T13:43:35.144Z,14.13
2019-02-16T13:46:05.591Z,12.43
2019-02-16T13:48:42.073Z,12.07
2019-02-16T13:51:18.473Z,13.17
2019-02-16T13:54:00.891Z,13.43
2019-02-16T13:56:47.398Z,11.73
2019-02-16T13:59:23.792Z,12.50
2019-02-16T14:02:11.985Z,17.37
2019-02-16T14:04:57.449Z,11.23
2019-02-16T14:07:44.053Z,14.73
2019-02-16T14:10:26.616Z,12.07
2019-02-16T14:12:59.978Z,12.07
2019-02-16T14:15:30.427Z,14.47
2019-02-16T14:17:59.186Z,12.67
2019-02-16T14:20:27.986Z,14.47
2019-02-16T14:22:56.747Z,12.43
2019-02-16T14:25:29.904Z,12.90
2019-02-16T14:27:58.743Z,11.30
2019-02-16T14:30:27.538Z,15.47
2019-02-16T14:32:56.315Z,12.93
2019-02-16T14:35:25.108Z,14.13
2019-02-16T14:37:55.539Z,14.07
2019-02-16T14:40:25.968Z,12.80
2019-02-16T14:42:54.740Z,12.90
2019-02-16T14:45:23.530Z,13.47
2019-02-16T14:47:52.295Z,12.43
2019-02-16T14:50:21.065Z,12.50
2019-02-16T14:52:49.848Z,13.40
2019-02-16T14:55:18.968Z,14.17
2019-02-16T14:57:47.755Z,12.23
2019-02-16T15:00:17.410Z,12.03
2019-02-16T15:02:46.228Z,11.40
2019-02-16T15:05:15.019Z,10.40
2019-02-16T15:07:43.813Z,13.63
2019-02-16T15:10:13.821Z,13.27
2019-02-16T15:12:42.611Z,12.33
2019-02-16T15:15:11.632Z,12.10
2019-02-16T15:17:40.447Z,14.27
2019-02-16T15:20:16.520Z,12.80
2019-02-16T15:22:45.323Z,12.37
2019-02-16T15:25:14.089Z,14.57
2019-02-16T15:27:42.914Z,13.60
2019-02-16T15:30:14.447Z,13.57
2019-02-16T15:32:43.547Z,14.30
2019-02-16T15:35:12.321Z,14.67
2019-02-16T15:37:41.196Z,14.33
2019-02-16T15:40:10.799Z,16.13
2019-02-16T15:42:39.592Z,15.77
2019-02-16T15:45:14.626Z,16.83
2019-02-16T15:47:43.419Z,12.80
2019-02-16T15:50:14.154Z,15.77
2019-02-16T15:52:42.949Z,13.70
2019-02-16T15:55:12.576Z,19.07
2019-02-16T15:57:41.383Z,14.47
2019-02-16T16:00:14.323Z,19.07
2019-02-16T16:02:43.124Z,16.73
2019-02-16T16:05:12.049Z,16.03
2019-02-16T16:07:42.510Z,16.87
2019-02-16T16:10:13.016Z,19.40
2019-02-16T16:12:59.725Z,17.90
2019-02-16T16:15:44.649Z,18.63
2019-02-16T16:18:29.610Z,17.40
2019-02-16T16:21:19.636Z,18.13
2019-02-16T16:24:06.258Z,18.37
2019-02-16T16:26:39.693Z,17.90
2019-02-16T16:29:10.128Z,18.50
2019-02-16T16:31:58.445Z,16.20
2019-02-16T16:34:28.900Z,15.83
2019-02-16T16:37:11.403Z,15.03
2019-02-16T16:39:53.805Z,15.23
2019-02-16T16:42:40.431Z,16.13
2019-02-16T16:45:28.976Z,11.60
2019-02-16T16:48:02.087Z,12.60
2019-02-16T16:50:38.450Z,14.30
2019-02-16T16:53:08.864Z,12.53
2019-02-16T16:55:39.324Z,15.37
2019-02-16T16:58:18.516Z,14.37
2019-02-16T17:00:54.752Z,14.40
2019-02-16T17:03:42.943Z,12.40
2019-02-16T17:06:19.564Z,12.37
2019-02-16T17:08:50.727Z,15.00
2019-02-16T17:11:37.481Z,13.47
2019-02-16T17:14:13.878Z,12.80
2019-02-16T17:16:50.230Z,13.60
2019-02-16T17:19:32.585Z,17.23
2019-02-16T17:22:09.320Z,16.97
2019-02-16T17:24:39.779Z,17.23
2019-02-16T17:27:10.283Z,16.13
2019-02-16T17:29:46.389Z,18.83
2019-02-16T17:32:16.879Z,16.17
2019-02-16T17:34:47.385Z,14.47
2019-02-16T17:37:20.785Z,13.23
2019-02-16T17:39:51.271Z,14.80
2019-02-16T17:42:30.900Z,14.47
2019-02-16T17:45:17.564Z,15.70
2019-02-16T17:48:00.434Z,12.33
2019-02-16T17:50:42.557Z,13.47
2019-02-16T17:53:12.996Z,12.90
2019-02-16T17:55:55.543Z,13.20
2019-02-16T17:58:25.978Z,13.73
2019-02-16T18:00:56.375Z,12.90
2019-02-16T18:03:33.566Z,14.47
2019-02-16T18:06:04.101Z,13.20
2019-02-16T18:08:50.687Z,14.87
2019-02-16T18:11:21.082Z,13.30
2019-02-16T18:14:07.912Z,13.57
2019-02-16T18:16:41.013Z,20.27
2019-02-16T18:19:16.990Z,17.97
2019-02-16T18:21:59.335Z,14.87
2019-02-16T18:24:29.876Z,13.80
2019-02-16T18:27:03.031Z,16.70
2019-02-16T18:29:48.172Z,15.13
2019-02-16T18:32:21.120Z,19.13
2019-02-16T18:34:57.257Z,15.70
2019-02-16T18:37:44.141Z,17.00
2019-02-16T18:40:14.649Z,12.53
2019-02-16T18:42:47.841Z,14.63
2019-02-16T18:45:18.272Z,17.70
2019-02-16T18:48:00.427Z,14.80
2019-02-16T18:50:31.734Z,12.87
2019-02-16T18:53:05.319Z,19.70
2019-02-16T18:55:38.408Z,17.63
2019-02-16T18:58:11.428Z,15.97
2019-02-16T19:00:41.942Z,17.20
2019-02-16T19:03:12.424Z,16.37
2019-02-16T19:05:59.241Z,21.03
2019-02-16T19:08:29.651Z,20.63
2019-02-16T19:11:15.104Z,18.43
2019-02-16T19:13:48.402Z,15.57
2019-02-16T19:16:30.821Z,17.30
2019-02-16T19:19:01.248Z,16.53
2019-02-16T19:21:34.725Z,31.97
2019-02-16T19:24:14.354Z,45.83
2019-02-16T19:26:44.949Z,71.17
2019-02-16T19:29:15.370Z,99.47
2019-02-16T19:31:54.863Z,114.77
2019-02-16T19:34:37.246Z,124.97
2019-02-16T19:37:24.238Z,77.40
2019-02-16T19:39:57.689Z,29.80
2019-02-16T19:42:30.803Z,17.53
2019-02-16T19:45:01.252Z,15.57
2019-02-16T19:47:34.427Z,13.10
2019-02-16T19:50:07.555Z,15.47
2019-02-16T19:52:38.005Z,15.97
2019-02-16T19:55:08.470Z,15.30
2019-02-16T19:57:54.240Z,19.80
2019-02-16T20:00:24.728Z,19.40
2019-02-16T20:03:06.946Z,17.40
2019-02-16T20:05:37.442Z,17.60
2019-02-16T20:08:13.699Z,18.87
2019-02-16T20:10:50.025Z,19.60
2019-02-16T20:13:38.285Z,18.50
2019-02-16T20:16:20.840Z,21.17
2019-02-16T20:18:51.291Z,17.50
2019-02-16T20:21:38.159Z,16.90
2019-02-16T20:24:14.362Z,15.67
2019-02-16T20:26:50.595Z,11.80
2019-02-16T20:29:21.026Z,14.90
2019-02-16T20:31:57.379Z,15.53
2019-02-16T20:34:44.076Z,15.03
2019-02-16T20:37:29.693Z,13.27
2019-02-16T20:40:16.631Z,14.23
2019-02-16T20:42:50.042Z,13.23
2019-02-16T20:45:35.751Z,13.57
2019-02-16T20:48:06.151Z,13.00
2019-02-16T20:50:36.583Z,12.80
2019-02-16T20:53:15.967Z,12.40
2019-02-16T20:55:58.756Z,14.20
2019-02-16T20:58:38.247Z,20.57
2019-02-16T21:01:17.641Z,14.40
2019-02-16T21:04:06.488Z,11.13
2019-02-16T21:06:36.965Z,13.10
2019-02-16T21:09:20.239Z,12.50
2019-02-16T21:11:56.692Z,13.23
2019-02-16T21:14:32.790Z,11.80
2019-02-16T21:17:09.182Z,11.67
2019-02-16T21:19:51.849Z,15.33
2019-02-16T21:22:34.552Z,17.63
2019-02-16T21:25:05.076Z,16.23
2019-02-16T21:27:35.520Z,17.33
2019-02-16T21:30:08.177Z,17.57
2019-02-16T21:32:54.840Z,15.80
2019-02-16T21:35:30.988Z,14.37
2019-02-16T21:38:01.506Z,15.83
2019-02-16T21:40:31.922Z,14.70
2019-02-16T21:43:02.424Z,15.97
2019-02-16T21:45:35.768Z,15.40
2019-02-16T21:48:11.748Z,14.23
2019-02-16T21:51:00.151Z,16.07
2019-02-16T21:53:48.614Z,13.97
2019-02-16T21:56:19.042Z,17.13
2019-02-16T21:59:01.304Z,12.80
2019-02-16T22:01:37.389Z,14.47
2019-02-16T22:04:07.815Z,12.10
2019-02-16T22:06:50.289Z,15.20
2019-02-16T22:09:23.799Z,11.00
2019-02-16T22:12:06.315Z,11.17
2019-02-16T22:14:35.135Z,12.87
2019-02-16T22:17:03.966Z,10.73
2019-02-16T22:19:32.785Z,11.70
2019-02-16T22:22:01.601Z,13.60
2019-02-16T22:24:30.426Z,10.83
2019-02-16T22:26:59.218Z,11.53
2019-02-16T22:29:28.084Z,18.30
2019-02-16T22:31:56.872Z,13.33
2019-02-16T22:34:25.706Z,11.70
2019-02-16T22:36:54.444Z,12.33
2019-02-16T22:39:23.260Z,11.50
2019-02-16T22:41:52.036Z,13.13
2019-02-16T22:44:20.851Z,14.73
2019-02-16T22:46:49.602Z,15.43
2019-02-16T22:49:18.470Z,14.60
2019-02-16T22:51:47.260Z,12.87
2019-02-16T22:54:16.095Z,11.53
2019-02-16T22:56:44.875Z,14.30
2019-02-16T22:59:13.632Z,15.73
2019-02-16T23:01:42.457Z,14.20
2019-02-16T23:04:11.206Z,17.50
2019-02-16T23:06:40.011Z,16.47
2019-02-16T23:09:10.572Z,17.43
2019-02-16T23:11:39.372Z,14.07
2019-02-16T23:14:08.154Z,14.70
2019-02-16T23:16:36.965Z,11.53
2019-02-16T23:19:05.710Z,15.00
2019-02-16T23:21:34.530Z,11.97
2019-02-16T23:24:03.467Z,15.23
2019-02-16T23:26:32.249Z,12.30
2019-02-16T23:29:01.009Z,13.20
2019-02-16T23:31:29.799Z,12.27
2019-02-16T23:33:58.573Z,12.70
2019-02-16T23:36:27.415Z,10.80
2019-02-16T23:38:56.179Z,16.23
2019-02-16T23:41:24.979Z,13.57
2019-02-16T23:43:53.738Z,16.00
2019-02-16T23:46:22.542Z,13.73
2019-02-16T23:48:51.341Z,14.07
2019-02-16T23:51:20.192Z,14.23
2019-02-16T23:53:48.973Z,17.13
2019-02-16T23:56:17.770Z,17.07
2019-02-16T23:58:49.270Z,10.87
